createdAt,value
2023-05-07T00:00:09.379Z,15.20
2023-05-07T00:02:37.191Z,15.10
2023-05-07T00:05:05.571Z,15.40
2023-05-07T00:07:32.689Z,15.30
2023-05-07T00:09:59.730Z,15.10
2023-05-07T00:12:26.829Z,14.90
2023-05-07T00:14:53.938Z,15.00
2023-05-07T00:17:21.244Z,15.30
2023-05-07T00:19:48.724Z,15.30
2023-05-07T00:22:15.817Z,15.20
2023-05-07T00:24:43.383Z,15.10
2023-05-07T00:27:10.545Z,15.10
2023-05-07T00:29:37.833Z,15.20
2023-05-07T00:32:05.228Z,15.30
2023-05-07T00:34:32.379Z,15.20
2023-05-07T00:36:59.438Z,15.10
2023-05-07T00:39:26.525Z,15.00
2023-05-07T00:41:53.564Z,15.00
2023-05-07T00:44:20.691Z,14.90
2023-05-07T00:46:50.935Z,14.90
2023-05-07T00:49:19.282Z,15.00
2023-05-07T00:51:46.850Z,14.90
2023-05-07T00:54:15.064Z,14.80
2023-05-07T00:56:42.409Z,14.90
2023-05-07T00:59:09.619Z,14.90
2023-05-07T01:01:37.916Z,14.90
2023-05-07T01:04:05.133Z,14.90
2023-05-07T01:06:33.805Z,14.80
2023-05-07T01:09:02.958Z,14.60
2023-05-07T01:11:30.016Z,14.70
2023-05-07T01:13:57.991Z,14.80
2023-05-07T01:16:25.226Z,14.70
2023-05-07T01:18:52.624Z,14.70
2023-05-07T01:21:23.959Z,14.70
2023-05-07T01:23:51.112Z,14.70
2023-05-07T01:26:20.575Z,14.60
2023-05-07T01:28:48.062Z,14.60
2023-05-07T01:31:17.654Z,14.60
2023-05-07T01:33:47.005Z,14.60
2023-05-07T01:36:15.806Z,14.60
2023-05-07T01:38:43.513Z,14.50
2023-05-07T01:41:11.198Z,14.60
2023-05-07T01:43:38.281Z,14.60
2023-05-07T01:46:05.900Z,14.70
2023-05-07T01:48:33.877Z,14.70
2023-05-07T01:51:01.754Z,14.70
2023-05-07T01:53:29.621Z,14.60
2023-05-07T01:55:56.801Z,14.60
2023-05-07T01:58:25.352Z,14.50
2023-05-07T02:00:52.535Z,14.50
2023-05-07T02:03:19.977Z,14.30
2023-05-07T02:05:56.535Z,14.30
2023-05-07T02:08:36.093Z,14.40
2023-05-07T02:11:03.352Z,14.50
2023-05-07T02:13:33.414Z,14.40
2023-05-07T02:16:01.600Z,14.30
2023-05-07T02:18:28.970Z,14.40
2023-05-07T02:20:56.223Z,14.40
2023-05-07T02:23:23.356Z,14.50
2023-05-07T02:25:50.825Z,14.40
2023-05-07T02:28:18.322Z,14.40
2023-05-07T02:31:11.318Z,14.30
2023-05-07T02:33:38.956Z,14.40
2023-05-07T02:36:10.846Z,14.40
2023-05-07T02:38:47.371Z,14.40
2023-05-07T02:41:14.491Z,14.50
2023-05-07T02:43:41.520Z,14.20
2023-05-07T02:46:10.002Z,14.20
2023-05-07T02:48:41.070Z,14.30
2023-05-07T02:51:08.346Z,14.20
2023-05-07T02:53:37.194Z,14.20
2023-05-07T02:56:04.528Z,14.20
2023-05-07T02:58:31.616Z,14.30
2023-05-07T03:01:00.563Z,14.20
2023-05-07T03:03:39.187Z,14.20
2023-05-07T03:06:08.081Z,14.20
2023-05-07T03:08:35.209Z,14.30
2023-05-07T03:11:02.262Z,14.10
2023-05-07T03:13:29.361Z,14.20
2023-05-07T03:15:56.876Z,13.90
2023-05-07T03:18:23.933Z,14.00
2023-05-07T03:20:51.179Z,14.10
2023-05-07T03:23:18.960Z,14.00
2023-05-07T03:25:46.067Z,14.00
2023-05-07T03:28:13.401Z,14.00
2023-05-07T03:30:47.110Z,14.10
2023-05-07T03:33:14.184Z,13.90
2023-05-07T03:35:41.664Z,13.90
2023-05-07T03:38:08.946Z,13.80
2023-05-07T03:40:37.797Z,13.90
2023-05-07T03:43:06.170Z,14.00
2023-05-07T03:45:36.076Z,13.90
2023-05-07T03:48:16.826Z,13.90
2023-05-07T03:50:44.229Z,13.90
2023-05-07T03:53:11.433Z,13.80
2023-05-07T03:55:40.333Z,13.80
2023-05-07T03:58:07.563Z,13.80
2023-05-07T04:00:39.166Z,13.70
2023-05-07T04:03:15.832Z,13.80
2023-05-07T04:05:43.141Z,13.70
2023-05-07T04:08:10.540Z,13.60
2023-05-07T04:10:41.638Z,13.60
2023-05-07T04:13:11.259Z,13.60
2023-05-07T04:15:38.908Z,13.60
2023-05-07T04:18:09.938Z,13.70
2023-05-07T04:20:38.312Z,13.60
2023-05-07T04:23:09.312Z,13.60
2023-05-07T04:25:36.953Z,13.50
2023-05-07T04:28:13.550Z,13.50
2023-05-07T04:30:42.350Z,13.60
2023-05-07T04:33:10.514Z,13.60
2023-05-07T04:35:39.292Z,13.70
2023-05-07T04:38:07.024Z,13.70
2023-05-07T04:40:36.352Z,13.70
2023-05-07T04:43:04.028Z,13.70
2023-05-07T04:45:34.397Z,13.60
2023-05-07T04:48:01.882Z,13.70
2023-05-07T04:50:31.556Z,13.70
2023-05-07T04:53:02.370Z,13.60
2023-05-07T04:55:29.787Z,13.70
2023-05-07T04:57:57.529Z,13.80
2023-05-07T05:00:26.280Z,13.70
2023-05-07T05:02:55.094Z,13.80
2023-05-07T05:05:23.470Z,13.80
2023-05-07T05:07:53.211Z,13.90
2023-05-07T05:10:22.468Z,13.80
2023-05-07T05:12:51.418Z,13.70
2023-05-07T05:15:18.786Z,13.70
2023-05-07T05:17:46.042Z,13.70
2023-05-07T05:20:13.485Z,13.70
2023-05-07T05:22:43.429Z,13.60
2023-05-07T05:25:11.401Z,13.60
2023-05-07T05:27:38.473Z,13.60
2023-05-07T05:30:06.937Z,13.70
2023-05-07T05:32:35.424Z,13.60
2023-05-07T05:35:02.968Z,13.60
2023-05-07T05:37:32.360Z,13.80
2023-05-07T05:40:01.642Z,13.90
2023-05-07T05:42:30.432Z,13.80
2023-05-07T05:44:57.561Z,13.70
2023-05-07T05:47:25.431Z,13.70
2023-05-07T05:49:55.488Z,13.80
2023-05-07T05:52:24.824Z,13.80
2023-05-07T05:54:52.292Z,13.80
2023-05-07T05:57:20.586Z,13.90
2023-05-07T05:59:48.502Z,13.80
2023-05-07T06:02:15.794Z,13.80
2023-05-07T06:04:43.847Z,13.80
2023-05-07T06:07:14.070Z,13.90
2023-05-07T06:09:42.119Z,13.90
2023-05-07T06:12:09.432Z,13.90
2023-05-07T06:14:36.966Z,13.80
2023-05-07T06:17:04.301Z,13.80
2023-05-07T06:19:32.016Z,13.80
2023-05-07T06:22:02.379Z,13.70
2023-05-07T06:24:30.944Z,13.80
2023-05-07T06:26:59.599Z,13.80
2023-05-07T06:29:28.044Z,13.80
2023-05-07T06:31:55.385Z,13.80
2023-05-07T06:34:23.974Z,13.90
2023-05-07T06:36:51.722Z,13.90
2023-05-07T06:39:31.640Z,14.00
2023-05-07T06:41:59.056Z,14.10
2023-05-07T06:44:31.977Z,14.10
2023-05-07T06:47:06.431Z,14.10
2023-05-07T06:49:34.703Z,14.20
2023-05-07T06:52:02.044Z,14.30
2023-05-07T06:54:31.104Z,14.40
2023-05-07T06:56:59.095Z,14.40
2023-05-07T06:59:28.029Z,14.40
2023-05-07T07:01:56.096Z,14.60
2023-05-07T07:04:24.974Z,14.60
2023-05-07T07:06:59.523Z,14.70
2023-05-07T07:09:26.573Z,14.70
2023-05-07T07:11:55.231Z,14.80
2023-05-07T07:14:22.923Z,14.80
2023-05-07T07:16:52.206Z,14.90
2023-05-07T07:19:21.446Z,15.00
2023-05-07T07:21:51.256Z,15.10
2023-05-07T07:24:22.148Z,15.10
2023-05-07T07:26:53.238Z,15.30
2023-05-07T07:29:21.650Z,15.40
2023-05-07T07:31:51.132Z,15.50
2023-05-07T07:34:19.810Z,15.60
2023-05-07T07:36:47.157Z,15.70
2023-05-07T07:39:17.733Z,15.60
2023-05-07T07:41:46.245Z,15.70
2023-05-07T07:44:15.834Z,15.80
2023-05-07T07:46:46.888Z,15.90
2023-05-07T07:49:14.321Z,15.90
2023-05-07T07:51:41.991Z,16.10
2023-05-07T07:54:11.018Z,16.30
2023-05-07T07:56:39.597Z,16.40
2023-05-07T07:59:07.692Z,16.40
2023-05-07T08:01:37.901Z,16.20
2023-05-07T08:04:06.744Z,16.40
2023-05-07T08:06:37.353Z,16.40
2023-05-07T08:09:04.658Z,16.60
2023-05-07T08:11:32.106Z,16.70
2023-05-07T08:13:59.663Z,16.50
2023-05-07T08:16:27.251Z,16.70
2023-05-07T08:18:54.404Z,16.70
2023-05-07T08:21:21.565Z,16.90
2023-05-07T08:23:48.785Z,16.80
2023-05-07T08:26:16.179Z,16.70
2023-05-07T08:28:44.125Z,16.90
2023-05-07T08:31:11.206Z,17.00
2023-05-07T08:33:41.062Z,17.20
2023-05-07T08:36:08.350Z,17.30
2023-05-07T08:38:36.419Z,17.30
2023-05-07T08:41:03.840Z,17.20
2023-05-07T08:43:34.668Z,17.40
2023-05-07T08:46:03.484Z,17.50
2023-05-07T08:48:34.800Z,17.60
2023-05-07T08:51:07.870Z,17.70
2023-05-07T08:53:37.215Z,17.80
2023-05-07T08:56:05.923Z,17.80
2023-05-07T08:58:33.289Z,17.80
2023-05-07T09:01:04.336Z,17.80
2023-05-07T09:03:32.364Z,17.80
2023-05-07T09:06:00.289Z,17.70
2023-05-07T09:08:29.164Z,17.80
2023-05-07T09:11:00.052Z,18.00
2023-05-07T09:13:28.924Z,18.00
2023-05-07T09:15:57.104Z,18.40
2023-05-07T09:18:26.788Z,18.70
2023-05-07T09:20:55.956Z,18.80
2023-05-07T09:23:23.193Z,19.20
2023-05-07T09:25:50.564Z,19.50
2023-05-07T09:28:26.968Z,19.80
2023-05-07T09:30:54.053Z,19.70
2023-05-07T09:33:21.488Z,19.70
2023-05-07T09:35:55.340Z,20.00
2023-05-07T09:38:23.952Z,19.70
2023-05-07T09:41:07.720Z,20.00
2023-05-07T09:43:41.872Z,20.30
2023-05-07T09:46:16.132Z,20.10
2023-05-07T09:48:50.600Z,20.30
2023-05-07T09:51:42.463Z,20.50
2023-05-07T09:54:11.766Z,20.60
2023-05-07T09:56:44.639Z,20.60
2023-05-07T09:59:15.064Z,20.50
2023-05-07T10:01:43.757Z,20.10
2023-05-07T10:04:12.485Z,20.00
2023-05-07T10:06:42.721Z,20.30
2023-05-07T10:09:12.209Z,20.60
2023-05-07T10:11:40.724Z,21.00
2023-05-07T10:14:09.159Z,20.60
2023-05-07T10:16:38.047Z,20.70
2023-05-07T10:19:13.414Z,20.80
2023-05-07T10:21:51.198Z,21.40
2023-05-07T10:24:23.079Z,21.80
2023-05-07T10:26:53.456Z,22.10
2023-05-07T10:29:30.500Z,21.60
2023-05-07T10:32:01.264Z,21.90
2023-05-07T10:34:38.766Z,22.20
2023-05-07T10:37:07.821Z,22.00
2023-05-07T10:39:35.978Z,21.80
2023-05-07T10:42:15.678Z,22.00
2023-05-07T10:44:48.615Z,22.50
2023-05-07T10:47:22.897Z,22.80
2023-05-07T10:49:53.080Z,22.80
2023-05-07T10:52:27.127Z,22.40
2023-05-07T10:55:21.057Z,22.20
2023-05-07T10:58:31.968Z,22.20
2023-05-07T11:02:07.356Z,22.70
2023-05-07T11:05:22.900Z,23.20
2023-05-07T11:08:16.335Z,23.40
2023-05-07T11:10:59.646Z,22.90
2023-05-07T11:13:48.828Z,23.10
2023-05-07T11:16:38.766Z,23.20
2023-05-07T11:19:17.628Z,23.90
2023-05-07T11:21:49.772Z,24.00
2023-05-07T11:24:47.051Z,23.80
2023-05-07T11:27:15.452Z,24.10
2023-05-07T11:29:48.669Z,24.00
2023-05-07T11:32:16.226Z,23.70
2023-05-07T11:34:53.787Z,23.80
2023-05-07T11:37:22.056Z,23.80
2023-05-07T11:40:10.371Z,23.80
2023-05-07T11:42:40.246Z,24.20
2023-05-07T11:45:08.488Z,24.70
2023-05-07T11:47:36.577Z,24.30
2023-05-07T11:50:06.933Z,24.50
2023-05-07T11:52:34.582Z,24.70
2023-05-07T11:55:04.675Z,24.20
2023-05-07T11:57:33.976Z,23.80
2023-05-07T12:00:06.009Z,24.20
2023-05-07T12:02:43.305Z,24.50
2023-05-07T12:05:11.207Z,24.60
2023-05-07T12:07:38.572Z,25.10
2023-05-07T12:10:08.655Z,25.00
2023-05-07T12:12:45.671Z,25.40
2023-05-07T12:15:16.546Z,24.90
2023-05-07T12:17:44.326Z,25.10
2023-05-07T12:20:11.942Z,25.10
2023-05-07T12:22:39.220Z,25.10
2023-05-07T12:25:07.917Z,25.60
2023-05-07T12:27:39.284Z,25.20
2023-05-07T12:30:06.947Z,25.30
2023-05-07T12:32:37.812Z,25.60
2023-05-07T12:35:07.709Z,25.70
2023-05-07T12:37:37.053Z,25.90
2023-05-07T12:40:11.524Z,26.00
2023-05-07T12:42:39.652Z,25.90
2023-05-07T12:45:17.509Z,25.90
2023-05-07T12:47:46.962Z,26.00
2023-05-07T12:50:15.436Z,25.80
2023-05-07T12:52:43.832Z,26.00
2023-05-07T12:55:13.796Z,25.60
2023-05-07T12:57:43.236Z,25.60
2023-05-07T13:00:10.946Z,25.60
2023-05-07T13:02:42.942Z,25.80
2023-05-07T13:05:10.483Z,25.50
2023-05-07T13:07:38.610Z,26.00
2023-05-07T13:10:06.374Z,25.80
2023-05-07T13:12:33.844Z,26.20
2023-05-07T13:15:00.887Z,26.30
2023-05-07T13:17:28.105Z,26.20
2023-05-07T13:19:55.319Z,26.40
2023-05-07T13:22:22.352Z,26.40
2023-05-07T13:24:49.415Z,26.50
2023-05-07T13:27:16.600Z,26.40
2023-05-07T13:29:43.645Z,26.40
2023-05-07T13:32:10.916Z,26.60
2023-05-07T13:34:38.227Z,26.50
2023-05-07T13:37:05.327Z,26.60
2023-05-07T13:39:32.694Z,26.70
2023-05-07T13:41:59.774Z,26.40
2023-05-07T13:44:27.719Z,26.50
2023-05-07T13:46:54.881Z,26.60
2023-05-07T13:49:22.021Z,26.50
2023-05-07T13:51:49.098Z,26.70
2023-05-07T13:54:16.996Z,26.70
2023-05-07T13:56:44.079Z,26.60
2023-05-07T13:59:11.148Z,26.40
2023-05-07T14:01:38.318Z,26.50
2023-05-07T14:04:05.597Z,26.40
2023-05-07T14:06:32.715Z,26.20
2023-05-07T14:08:59.822Z,26.40
2023-05-07T14:11:26.833Z,26.20
2023-05-07T14:13:53.888Z,26.50
2023-05-07T14:16:21.128Z,26.30
2023-05-07T14:18:48.237Z,26.30
2023-05-07T14:21:15.451Z,26.60
2023-05-07T14:23:42.573Z,26.50
2023-05-07T14:26:09.667Z,26.60
2023-05-07T14:28:36.750Z,26.50
2023-05-07T14:31:03.885Z,26.40
2023-05-07T14:33:31.137Z,26.40
2023-05-07T14:35:58.232Z,26.30
2023-05-07T14:38:25.453Z,26.40
2023-05-07T14:40:53.279Z,26.30
2023-05-07T14:43:20.582Z,26.20
2023-05-07T14:45:48.967Z,26.40
2023-05-07T14:48:16.294Z,26.10
2023-05-07T14:50:43.985Z,26.10
2023-05-07T14:53:11.020Z,26.10
2023-05-07T14:55:38.108Z,26.20
2023-05-07T14:58:05.218Z,26.40
2023-05-07T15:00:34.586Z,26.30
2023-05-07T15:03:09.586Z,25.90
2023-05-07T15:05:37.517Z,25.50
2023-05-07T15:08:04.688Z,25.60
2023-05-07T15:10:31.758Z,25.70
2023-05-07T15:12:58.882Z,25.30
2023-05-07T15:15:25.961Z,25.10
2023-05-07T15:17:55.090Z,25.20
2023-05-07T15:20:22.117Z,25.10
2023-05-07T15:22:50.083Z,25.30
2023-05-07T15:25:17.286Z,24.70
2023-05-07T15:27:45.288Z,24.90
2023-05-07T15:30:13.433Z,25.00
2023-05-07T15:32:41.577Z,24.70
2023-05-07T15:35:09.261Z,24.70
2023-05-07T15:37:36.573Z,24.60
2023-05-07T15:40:06.046Z,24.70
2023-05-07T15:42:33.762Z,24.00
2023-05-07T15:45:02.356Z,24.10
2023-05-07T15:47:33.487Z,24.20
2023-05-07T15:50:00.771Z,24.20
2023-05-07T15:52:29.248Z,24.40
2023-05-07T15:54:57.601Z,24.40
2023-05-07T15:57:25.410Z,24.50
2023-05-07T15:59:52.711Z,24.20
2023-05-07T16:02:19.800Z,24.10
2023-05-07T16:04:47.620Z,24.30
2023-05-07T16:07:14.654Z,24.00
2023-05-07T16:09:41.748Z,23.80
2023-05-07T16:12:08.818Z,23.60
2023-05-07T16:14:35.873Z,23.70
2023-05-07T16:17:02.995Z,23.70
2023-05-07T16:19:30.502Z,23.80
2023-05-07T16:21:57.959Z,23.50
2023-05-07T16:24:25.035Z,23.10
2023-05-07T16:26:52.065Z,22.70
2023-05-07T16:29:20.722Z,22.70
2023-05-07T16:31:47.760Z,22.60
2023-05-07T16:34:14.866Z,22.20
2023-05-07T16:36:41.998Z,22.20
2023-05-07T16:39:09.381Z,22.10
2023-05-07T16:41:36.631Z,22.00
2023-05-07T16:44:03.979Z,22.10
2023-05-07T16:46:32.093Z,21.80
2023-05-07T16:48:59.177Z,21.90
2023-05-07T16:51:26.285Z,21.80
2023-05-07T16:53:53.731Z,21.80
2023-05-07T16:56:21.157Z,21.70
2023-05-07T16:58:48.715Z,21.70
2023-05-07T17:01:16.938Z,21.50
2023-05-07T17:03:44.185Z,21.40
2023-05-07T17:06:15.366Z,21.40
2023-05-07T17:08:43.136Z,21.60
2023-05-07T17:11:11.029Z,21.30
2023-05-07T17:13:38.112Z,21.20
2023-05-07T17:16:05.616Z,21.10
2023-05-07T17:18:32.739Z,20.80
2023-05-07T17:20:59.803Z,20.80
2023-05-07T17:23:26.853Z,20.80
2023-05-07T17:25:53.847Z,20.80
2023-05-07T17:28:21.032Z,20.60
2023-05-07T17:30:48.774Z,20.60
2023-05-07T17:33:21.511Z,20.60
2023-05-07T17:35:49.770Z,20.40
2023-05-07T17:38:16.890Z,20.50
2023-05-07T17:40:43.991Z,20.40
2023-05-07T17:43:11.039Z,20.30
2023-05-07T17:45:38.109Z,20.20
2023-05-07T17:48:05.553Z,20.20
2023-05-07T17:50:32.757Z,19.90
2023-05-07T17:52:59.891Z,19.70
2023-05-07T17:55:26.991Z,19.90
2023-05-07T17:57:54.188Z,19.70
2023-05-07T18:00:21.540Z,19.80
2023-05-07T18:02:51.325Z,19.90
2023-05-07T18:05:18.464Z,20.00
2023-05-07T18:07:45.569Z,19.80
2023-05-07T18:10:12.969Z,19.60
2023-05-07T18:12:40.403Z,19.70
2023-05-07T18:15:08.030Z,19.70
2023-05-07T18:17:36.126Z,19.70
2023-05-07T18:20:11.635Z,19.70
2023-05-07T18:22:39.082Z,19.50
2023-05-07T18:25:06.768Z,19.50
2023-05-07T18:27:33.798Z,19.30
2023-05-07T18:30:00.885Z,19.10
2023-05-07T18:32:28.092Z,19.20
2023-05-07T18:34:55.375Z,19.30
2023-05-07T18:37:24.614Z,19.30
2023-05-07T18:39:52.421Z,18.90
2023-05-07T18:42:20.228Z,18.80
2023-05-07T18:44:47.271Z,18.80
2023-05-07T18:47:14.610Z,18.70
2023-05-07T18:49:41.777Z,18.80
2023-05-07T18:52:08.940Z,18.60
2023-05-07T18:54:35.975Z,18.50
2023-05-07T18:57:03.367Z,18.60
2023-05-07T18:59:30.500Z,18.70
2023-05-07T19:01:57.624Z,18.60
2023-05-07T19:04:24.868Z,18.60
2023-05-07T19:06:52.112Z,18.40
2023-05-07T19:09:19.252Z,18.40
2023-05-07T19:11:46.303Z,18.30
2023-05-07T19:14:13.363Z,18.40
2023-05-07T19:16:40.649Z,18.20
2023-05-07T19:19:07.746Z,18.20
2023-05-07T19:21:34.865Z,18.30
2023-05-07T19:24:01.984Z,18.20
2023-05-07T19:26:29.164Z,18.10
2023-05-07T19:29:12.228Z,18.10
2023-05-07T19:31:44.132Z,18.20
2023-05-07T19:34:13.232Z,17.90
2023-05-07T19:36:40.791Z,18.20
2023-05-07T19:39:07.819Z,17.90
2023-05-07T19:41:34.994Z,17.80
2023-05-07T19:44:02.170Z,17.80
2023-05-07T19:46:29.381Z,18.00
2023-05-07T19:48:56.477Z,17.90
2023-05-07T19:51:23.798Z,17.70
2023-05-07T19:53:51.485Z,17.90
2023-05-07T19:56:18.508Z,17.60
2023-05-07T19:58:45.633Z,17.50
2023-05-07T20:01:12.760Z,17.70
2023-05-07T20:03:40.050Z,17.70
2023-05-07T20:06:07.227Z,17.70
2023-05-07T20:08:34.301Z,17.70
2023-05-07T20:11:01.966Z,17.40
2023-05-07T20:13:29.413Z,17.40
2023-05-07T20:16:00.940Z,17.50
2023-05-07T20:18:29.183Z,17.30
2023-05-07T20:20:56.595Z,17.40
2023-05-07T20:23:24.342Z,17.40
2023-05-07T20:25:51.587Z,17.40
2023-05-07T20:28:18.904Z,17.50
2023-05-07T20:30:45.941Z,17.10
2023-05-07T20:33:13.281Z,17.20
2023-05-07T20:35:40.859Z,17.20
2023-05-07T20:38:08.174Z,17.40
2023-05-07T20:40:37.936Z,17.50
2023-05-07T20:43:08.058Z,17.30
2023-05-07T20:45:35.477Z,17.00
2023-05-07T20:48:02.701Z,17.00
2023-05-07T20:50:29.995Z,16.80
2023-05-07T20:52:57.008Z,16.90
2023-05-07T20:55:24.074Z,17.10
2023-05-07T20:57:51.177Z,16.90
2023-05-07T21:00:18.617Z,16.90
2023-05-07T21:02:45.834Z,16.70
2023-05-07T21:05:12.977Z,16.60
2023-05-07T21:07:40.065Z,16.90
2023-05-07T21:10:07.854Z,16.90
2023-05-07T21:12:35.010Z,16.60
2023-05-07T21:15:02.335Z,16.70
2023-05-07T21:17:31.802Z,16.70
2023-05-07T21:19:59.054Z,16.70
2023-05-07T21:22:26.507Z,16.60
2023-05-07T21:24:53.552Z,16.50
2023-05-07T21:27:23.206Z,16.60
2023-05-07T21:29:50.586Z,16.20
2023-05-07T21:32:17.638Z,16.20
2023-05-07T21:34:44.722Z,16.20
2023-05-07T21:37:11.771Z,16.10
2023-05-07T21:39:38.869Z,16.20
2023-05-07T21:42:05.896Z,16.60
2023-05-07T21:44:33.030Z,16.40
2023-05-07T21:47:00.033Z,16.20
2023-05-07T21:49:27.258Z,16.30
2023-05-07T21:51:54.281Z,16.30
2023-05-07T21:54:21.439Z,16.60
2023-05-07T21:56:50.059Z,16.30
2023-05-07T21:59:17.288Z,15.90
2023-05-07T22:01:44.427Z,16.10
2023-05-07T22:04:11.657Z,16.30
2023-05-07T22:06:38.811Z,16.20
2023-05-07T22:09:06.331Z,15.90
2023-05-07T22:11:33.406Z,15.90
2023-05-07T22:14:00.791Z,16.10
2023-05-07T22:16:28.084Z,15.70
2023-05-07T22:18:55.385Z,15.80
2023-05-07T22:21:22.697Z,15.90
2023-05-07T22:23:49.728Z,15.70
2023-05-07T22:26:16.812Z,15.50
2023-05-07T22:28:44.013Z,15.80
2023-05-07T22:31:11.435Z,15.60
2023-05-07T22:33:38.532Z,15.50
2023-05-07T22:36:07.726Z,15.70
2023-05-07T22:38:34.815Z,15.70
2023-05-07T22:41:01.875Z,15.10
2023-05-07T22:43:28.968Z,15.10
2023-05-07T22:46:02.356Z,15.30
2023-05-07T22:48:29.865Z,15.40
2023-05-07T22:50:56.900Z,15.20
2023-05-07T22:53:24.114Z,15.40
2023-05-07T22:55:51.317Z,15.30
2023-05-07T22:58:18.481Z,15.40
2023-05-07T23:00:45.578Z,15.00
2023-05-07T23:03:12.871Z,15.20
2023-05-07T23:05:40.281Z,15.20
2023-05-07T23:08:07.300Z,15.40
2023-05-07T23:10:35.114Z,15.10
2023-05-07T23:13:02.897Z,14.90
2023-05-07T23:15:30.158Z,15.20
2023-05-07T23:17:57.222Z,15.20
2023-05-07T23:20:24.276Z,14.70
2023-05-07T23:22:51.350Z,14.60
2023-05-07T23:25:18.515Z,14.70
2023-05-07T23:27:45.688Z,14.50
2023-05-07T23:30:13.565Z,14.70
2023-05-07T23:32:40.867Z,14.90
2023-05-07T23:35:08.590Z,14.80
2023-05-07T23:37:35.757Z,14.70
2023-05-07T23:40:02.840Z,14.80
2023-05-07T23:42:29.943Z,14.80
2023-05-07T23:44:57.294Z,14.90
2023-05-07T23:47:24.405Z,15.00
2023-05-07T23:49:51.428Z,15.00
2023-05-07T23:52:18.578Z,14.70
2023-05-07T23:54:45.565Z,14.90
2023-05-07T23:57:12.675Z,14.70
2023-05-07T23:59:39.854Z,14.60
